Time,TemperatureF,DewpointF,PressureIn,WindDirection,WindDirectionDegrees,WindSpeedMPH,WindSpeedGustMPH,Humidity,HourlyPrecipIn,Conditions,Clouds,dailyrainin,SoftwareType,DateUTC
2013-03-19 00:02:00,7.6,1.9,29.88,NW,308,6.0,6.0,77,0.00,,SKC,0.00,VWS V14.01,2013-03-19 05:02:00,
2013-03-19 00:07:00,7.6,1.9,29.88,NW,309,6.0,12.0,77,0.00,,SKC,0.00,VWS V14.01,2013-03-19 05:07:00,
2013-03-19 00:13:00,7.2,1.5,29.88,NW,316,7.0,7.0,77,0.00,,SKC,0.00,VWS V14.01,2013-03-19 05:13:00,
2013-03-19 00:18:00,7.2,1.5,29.88,North,357,10.0,11.0,77,0.00,,SKC,0.00,VWS V14.01,2013-03-19 05:18:00,
2013-03-19 00:24:00,7.2,1.5,29.88,North,353,11.0,11.0,77,0.00,,SKC,0.00,VWS V14.01,2013-03-19 05:24:00,
2013-03-19 00:32:00,7.2,1.2,29.88,North,356,7.0,7.0,76,0.00,,SKC,0.00,VWS V14.01,2013-03-19 05:32:00,
2013-03-19 00:37:00,7.2,1.2,29.88,NW,312,6.0,11.0,76,0.00,,SKC,0.00,VWS V14.01,2013-03-19 05:37:00,
2013-03-19 00:42:00,7.0,1.0,29.88,NNW,335,9.0,14.0,76,0.00,,SKC,0.00,VWS V14.01,2013-03-19 05:42:00,
2013-03-19 00:47:00,7.2,1.2,29.88,NNW,342,8.0,19.0,76,0.00,,SKC,0.00,VWS V14.01,2013-03-19 05:47:00,
2013-03-19 00:52:00,7.0,1.0,29.88,NNW,339,11.0,18.0,76,0.00,,SKC,0.00,VWS V14.01,2013-03-19 05:52:00,
2013-03-19 00:57:00,7.0,1.0,29.88,North,359,8.0,8.0,76,0.00,,SKC,0.00,VWS V14.01,2013-03-19 05:57:00,
2013-03-19 01:02:00,7.0,1.0,29.89,NNW,335,1.0,1.0,76,0.00,,SKC,0.00,VWS V14.01,2013-03-19 06:02:00,
2013-03-19 01:07:00,7.0,1.0,29.89,NNW,328,7.0,8.0,76,0.00,,SKC,0.00,VWS V14.01,2013-03-19 06:07:00,
2013-03-19 01:12:00,6.9,0.9,29.89,NNW,329,9.0,11.0,76,0.00,,SKC,0.00,VWS V14.01,2013-03-19 06:12:00,
2013-03-19 01:17:00,6.7,0.8,29.89,NNW,335,2.0,12.0,76,0.00,,SKC,0.00,VWS V14.01,2013-03-19 06:17:00,
2013-03-19 01:22:00,6.7,0.8,29.89,NW,315,10.0,12.0,76,0.00,,SKC,0.00,VWS V14.01,2013-03-19 06:22:00,
2013-03-19 01:27:00,6.7,0.8,29.89,NNW,332,7.0,12.0,76,0.00,,SKC,0.00,VWS V14.01,2013-03-19 06:27:00,
2013-03-19 01:32:00,6.5,0.6,29.89,NNW,333,6.0,10.0,76,0.00,,SKC,0.00,VWS V14.01,2013-03-19 06:32:00,
2013-03-19 01:37:00,6.3,0.4,29.89,NW,320,6.0,16.0,76,0.00,,SKC,0.00,VWS V14.01,2013-03-19 06:37:00,
2013-03-19 01:42:00,6.3,0.4,29.89,NW,316,6.0,6.0,76,0.00,,SKC,0.00,VWS V14.01,2013-03-19 06:42:00,
2013-03-19 01:48:00,6.0,0.3,29.90,NNW,336,9.0,9.0,77,0.00,,SKC,0.00,VWS V14.01,2013-03-19 06:48:00,
2013-03-19 01:53:00,6.0,0.3,29.90,NW,318,6.0,6.0,77,0.00,,SKC,0.00,VWS V14.01,2013-03-19 06:53:00,
2013-03-19 01:58:00,5.8,0.2,29.90,NNW,330,6.0,6.0,77,0.00,,SKC,0.00,VWS V14.01,2013-03-19 06:58:00,
2013-03-19 02:03:00,5.8,0.2,29.90,NW,311,6.0,6.0,77,0.00,,SKC,0.00,VWS V14.01,2013-03-19 07:03:00,
2013-03-19 02:09:00,5.6,0.0,29.90,North,352,3.0,3.0,77,0.00,,SKC,0.00,VWS V14.01,2013-03-19 07:09:00,
2013-03-19 02:16:00,5.6,0.0,29.91,NNW,336,5.0,5.0,77,0.00,,SKC,0.00,VWS V14.01,2013-03-19 07:16:00,
2013-03-19 02:21:00,5.6,0.0,29.91,NNW,330,3.0,11.0,77,0.00,,SKC,0.00,VWS V14.01,2013-03-19 07:21:00,
2013-03-19 02:26:00,5.6,0.0,29.91,NW,316,4.0,13.0,77,0.00,,SKC,0.00,VWS V14.01,2013-03-19 07:26:00,
2013-03-19 02:31:00,5.6,-0.3,29.92,NW,316,7.0,7.0,76,0.00,,SKC,0.00,VWS V14.01,2013-03-19 07:31:00,
2013-03-19 02:36:00,5.4,-0.5,29.92,NNW,332,5.0,10.0,76,0.00,,SKC,0.00,VWS V14.01,2013-03-19 07:36:00,
2013-03-19 02:41:00,5.2,-0.7,29.92,NW,315,11.0,11.0,76,0.00,,SKC,0.00,VWS V14.01,2013-03-19 07:41:00,
2013-03-19 02:46:00,5.4,-0.2,29.92,NNW,343,5.0,5.0,77,0.00,,SKC,0.00,VWS V14.01,2013-03-19 07:46:00,
2013-03-19 02:52:00,5.2,-0.4,29.92,NW,322,4.0,4.0,77,0.00,,SKC,0.00,VWS V14.01,2013-03-19 07:52:00,
2013-03-19 02:57:00,5.2,-0.4,29.92,NW,322,3.0,4.0,77,0.00,,SKC,0.00,VWS V14.01,2013-03-19 07:57:00,
2013-03-19 03:02:00,5.2,-0.4,29.93,NNW,332,2.0,2.0,77,0.00,,SKC,0.00,VWS V14.01,2013-03-19 08:02:00,
2013-03-19 03:07:00,5.2,-0.7,29.93,NW,325,0.0,0.0,76,0.00,,SKC,0.00,VWS V14.01,2013-03-19 08:07:00,
2013-03-19 03:12:00,5.2,-0.7,29.93,NNW,340,4.0,4.0,76,0.00,,SKC,0.00,VWS V14.01,2013-03-19 08:12:00,
2013-03-19 03:17:00,5.0,-0.9,29.93,North,0,5.0,6.0,76,0.00,,SKC,0.00,VWS V14.01,2013-03-19 08:17:00,
2013-03-19 03:22:00,5.0,-0.9,29.93,NW,319,3.0,3.0,76,0.00,,SKC,0.00,VWS V14.01,2013-03-19 08:22:00,
2013-03-19 03:30:00,5.0,-0.9,29.93,NNW,344,6.0,6.0,76,0.00,,SKC,0.00,VWS V14.01,2013-03-19 08:30:00,
2013-03-19 03:35:00,5.0,-0.9,29.93,NNW,330,5.0,6.0,76,0.00,,SKC,0.00,VWS V14.01,2013-03-19 08:35:00,
2013-03-19 03:40:00,5.0,-0.9,29.93,NNW,340,7.0,7.0,76,0.00,,SKC,0.00,VWS V14.01,2013-03-19 08:40:00,
2013-03-19 03:45:00,4.8,-1.1,29.93,NW,306,10.0,10.0,76,0.00,,SKC,0.00,VWS V14.01,2013-03-19 08:45:00,
2013-03-19 03:50:00,4.7,-1.2,29.94,NW,316,9.0,10.0,76,0.00,,SKC,0.00,VWS V14.01,2013-03-19 08:50:00,
2013-03-19 03:55:00,4.5,-1.4,29.94,NW,323,3.0,3.0,76,0.00,,SKC,0.00,VWS V14.01,2013-03-19 08:55:00,
2013-03-19 04:00:00,4.3,-1.6,29.94,North,352,6.0,8.0,76,0.00,,SKC,0.00,VWS V14.01,2013-03-19 09:00:00,
2013-03-19 04:07:00,4.1,-1.8,29.94,North,1,3.0,3.0,76,0.00,,SKC,0.00,VWS V14.01,2013-03-19 09:07:00,
2013-03-19 04:12:00,4.1,-1.8,29.94,NNW,343,5.0,6.0,76,0.00,,SKC,0.00,VWS V14.01,2013-03-19 09:12:00,
2013-03-19 04:17:00,4.1,-1.8,29.95,NNW,335,5.0,6.0,76,0.00,,SKC,0.00,VWS V14.01,2013-03-19 09:17:00,
2013-03-19 04:22:00,3.9,-2.0,29.95,NNW,346,4.0,5.0,76,0.00,,SKC,0.00,VWS V14.01,2013-03-19 09:22:00,
2013-03-19 04:27:00,3.7,-2.2,29.95,NNW,340,8.0,8.0,76,0.00,,SKC,0.00,VWS V14.01,2013-03-19 09:27:00,
2013-03-19 04:30:00,3.7,-2.2,29.95,NNW,338,5.0,10.0,76,0.00,,SKC,0.00,VWS V14.01,2013-03-19 09:30:00,
2013-03-19 04:33:00,3.7,-2.2,29.95,North,0,3.0,3.0,76,0.00,,SKC,0.00,VWS V14.01,2013-03-19 09:33:00,
2013-03-19 04:38:00,3.5,-2.3,29.95,NNW,343,4.0,10.0,76,0.00,,SKC,0.00,VWS V14.01,2013-03-19 09:38:00,
2013-03-19 04:43:00,3.5,-2.3,29.95,NW,312,7.0,7.0,76,0.00,,SKC,0.00,VWS V14.01,2013-03-19 09:43:00,
2013-03-19 04:51:00,3.4,-2.5,29.96,NNW,344,2.0,2.0,76,0.00,,SKC,0.00,VWS V14.01,2013-03-19 09:51:00,
2013-03-19 04:58:00,3.2,-2.6,29.96,NNW,332,6.0,6.0,76,0.00,,SKC,0.00,VWS V14.01,2013-03-19 09:58:00,
2013-03-19 05:03:00,3.2,-2.6,29.96,NW,325,3.0,3.0,76,0.00,,SKC,0.00,VWS V14.01,2013-03-19 10:03:00,
2013-03-19 05:40:00,2.2,-3.6,29.98,NNW,338,4.0,12.0,76,0.00,,SKC,0.00,VWS V14.01,2013-03-19 10:40:00,
2013-03-19 05:58:00,2.2,-3.6,29.99,North,352,4.0,4.0,76,0.00,,SKC,0.00,VWS V14.01,2013-03-19 10:58:00,
2013-03-19 07:00:00,1.7,-4.7,30.03,NNW,338,4.0,11.0,74,0.00,,SKC,0.00,VWS V14.01,2013-03-19 12:00:00,
2013-03-19 07:13:00,1.7,-4.7,30.03,NNW,338,4.0,11.0,74,0.00,,SKC,0.00,VWS V14.01,2013-03-19 12:13:00,
2013-03-19 07:18:00,1.5,-4.8,30.04,NNW,339,2.0,6.0,74,0.00,,SKC,0.00,VWS V14.01,2013-03-19 12:18:00,
2013-03-19 07:24:00,1.5,-4.8,30.04,North,354,2.0,2.0,74,0.00,,SKC,0.00,VWS V14.01,2013-03-19 12:24:00,
2013-03-19 07:30:00,1.5,-4.8,30.04,NW,316,2.0,2.0,74,0.00,,SKC,0.00,VWS V14.01,2013-03-19 12:30:00,
2013-03-19 07:36:00,1.7,-4.9,30.04,NNW,346,2.0,2.0,73,0.00,,SKC,0.00,VWS V14.01,2013-03-19 12:36:00,
2013-03-19 07:43:00,1.5,-5.1,30.04,NW,305,4.0,4.0,73,0.00,,SKC,0.00,VWS V14.01,2013-03-19 12:43:00,
2013-03-19 07:49:00,1.5,-5.1,30.05,NNW,335,5.0,5.0,73,0.00,,SKC,0.00,VWS V14.01,2013-03-19 12:49:00,
2013-03-19 07:55:00,1.7,-5.2,30.05,North,0,1.0,1.0,72,0.00,,SKC,0.00,VWS V14.01,2013-03-19 12:55:00,
2013-03-19 08:01:00,1.8,-5.1,30.06,North,0,4.0,4.0,72,0.00,,SKC,0.00,VWS V14.01,2013-03-19 13:01:00,
2013-03-19 08:06:00,1.8,-5.1,30.06,NW,318,2.0,2.0,72,0.00,,SKC,0.00,VWS V14.01,2013-03-19 13:06:00,
2013-03-19 08:11:00,1.8,-5.1,30.06,NNW,333,1.0,1.0,72,0.00,,SKC,0.00,VWS V14.01,2013-03-19 13:11:00,
2013-03-19 08:19:00,2.0,-5.2,30.07,NNW,336,2.0,2.0,71,0.00,,SKC,0.00,VWS V14.01,2013-03-19 13:19:00,
2013-03-19 08:24:00,2.2,-5.0,30.07,North,0,1.0,4.0,71,0.00,,SKC,0.00,VWS V14.01,2013-03-19 13:24:00,
2013-03-19 08:29:00,2.2,-5.0,30.07,NNW,340,1.0,4.0,71,0.00,,SKC,0.00,VWS V14.01,2013-03-19 13:29:00,
2013-03-19 08:34:00,2.4,-5.1,30.07,NNW,336,5.0,5.0,70,0.00,,SKC,0.00,VWS V14.01,2013-03-19 13:34:00,
2013-03-19 08:40:00,2.8,-5.1,30.07,North,359,3.0,3.0,69,0.00,,SKC,0.00,VWS V14.01,2013-03-19 13:40:00,
2013-03-19 08:46:00,3.0,-4.8,30.07,North,7,6.0,6.0,69,0.00,,SKC,0.00,VWS V14.01,2013-03-19 13:46:00,
2013-03-19 08:51:00,3.4,-4.8,30.07,NNW,343,3.0,5.0,68,0.00,,SKC,0.00,VWS V14.01,2013-03-19 13:51:00,
2013-03-19 08:57:00,3.5,-4.7,30.07,NNW,344,5.0,5.0,68,0.00,,SKC,0.00,VWS V14.01,2013-03-19 13:57:00,
2013-03-19 09:04:00,3.7,-4.8,30.07,North,353,3.0,3.0,67,0.00,,SKC,0.00,VWS V14.01,2013-03-19 14:04:00,
2013-03-19 09:11:00,4.1,-4.4,30.07,North,350,7.0,7.0,67,0.00,,SKC,0.00,VWS V14.01,2013-03-19 14:11:00,
2013-03-19 09:17:00,4.1,-4.4,30.08,NW,322,7.0,7.0,67,0.00,,SKC,0.00,VWS V14.01,2013-03-19 14:17:00,
2013-03-19 09:22:00,4.1,-4.4,30.08,NW,326,11.0,11.0,67,0.00,,SKC,0.00,VWS V14.01,2013-03-19 14:22:00,
2013-03-19 09:27:00,4.5,-4.0,30.08,North,354,6.0,13.0,67,0.00,,SKC,0.00,VWS V14.01,2013-03-19 14:27:00,
2013-03-19 09:32:00,4.5,-4.3,30.09,NNW,332,5.0,10.0,66,0.00,,SKC,0.00,VWS V14.01,2013-03-19 14:32:00,
2013-03-19 09:38:00,4.7,-4.2,30.09,North,0,5.0,5.0,66,0.00,,SKC,0.00,VWS V14.01,2013-03-19 14:38:00,
2013-03-19 09:44:00,4.8,-4.1,30.09,North,350,6.0,6.0,66,0.00,,SKC,0.00,VWS V14.01,2013-03-19 14:44:00,
2013-03-19 09:50:00,5.0,-3.5,30.10,NW,319,2.0,2.0,67,0.00,,SKC,0.00,VWS V14.01,2013-03-19 14:50:00,
2013-03-19 09:57:00,5.0,-3.9,30.10,NNW,347,3.0,3.0,66,0.00,,SKC,0.00,VWS V14.01,2013-03-19 14:57:00,
2013-03-19 10:03:00,5.4,-3.5,30.10,North,352,6.0,6.0,66,0.00,,SKC,0.00,VWS V14.01,2013-03-19 15:03:00,
2013-03-19 10:10:00,5.4,-3.8,30.10,NW,326,7.0,7.0,65,0.00,,SKC,0.00,VWS V14.01,2013-03-19 15:10:00,
2013-03-19 10:16:00,5.6,-3.6,30.11,NNW,336,8.0,8.0,65,0.00,,SKC,0.00,VWS V14.01,2013-03-19 15:16:00,
2013-03-19 10:20:00,5.8,-3.4,30.11,NNW,338,7.0,16.0,65,0.00,,SKC,0.00,VWS V14.01,2013-03-19 15:20:00,
2013-03-19 10:23:00,5.8,-3.4,30.11,NW,318,2.0,2.0,65,0.00,,SKC,0.00,VWS V14.01,2013-03-19 15:23:00,
2013-03-19 10:28:00,6.0,-3.2,30.11,NNW,335,6.0,7.0,65,0.00,,SKC,0.00,VWS V14.01,2013-03-19 15:28:00,
2013-03-19 10:33:00,6.3,-2.9,30.12,NNW,336,3.0,3.0,65,0.00,,SKC,0.00,VWS V14.01,2013-03-19 15:33:00,
2013-03-19 10:39:00,6.7,-2.5,30.12,NNW,340,3.0,3.0,65,0.00,,SKC,0.00,VWS V14.01,2013-03-19 15:39:00,
2013-03-19 10:46:00,7.2,-2.1,30.12,North,0,3.0,3.0,65,0.00,,SKC,0.00,VWS V14.01,2013-03-19 15:46:00,
2013-03-19 10:53:00,7.0,-2.9,30.12,North,3,12.0,12.0,63,0.00,,SKC,0.00,VWS V14.01,2013-03-19 15:53:00,
2013-03-19 11:00:00,7.0,-2.9,30.12,NNW,329,8.0,8.0,63,0.00,,SKC,0.00,VWS V14.01,2013-03-19 16:00:00,
2013-03-19 11:06:00,7.7,-2.3,30.12,NW,313,5.0,5.0,63,0.00,,SKC,0.00,VWS V14.01,2013-03-19 16:06:00,
2013-03-19 11:13:00,7.9,-2.4,30.12,NNW,330,7.0,7.0,62,0.00,,SKC,0.00,VWS V14.01,2013-03-19 16:13:00,
2013-03-19 11:21:00,8.4,-2.3,30.11,NW,320,3.0,3.0,61,0.00,,SKC,0.00,VWS V14.01,2013-03-19 16:21:00,
2013-03-19 12:30:00,11.1,0.3,30.12,NW,315,6.0,13.0,61,0.00,,---,0.00,VWS V14.01,2013-03-19 17:30:00,
2013-03-19 13:38:00,13.8,2.5,30.13,NW,309,7.0,7.0,60,0.00,,---,0.00,VWS V14.01,2013-03-19 18:38:00,
2013-03-19 13:43:00,14.0,2.0,30.13,NW,308,14.0,16.0,58,0.00,,---,0.00,VWS V14.01,2013-03-19 18:43:00,
2013-03-19 13:48:00,14.1,2.4,30.13,NW,322,6.0,16.0,59,0.00,,---,0.00,VWS V14.01,2013-03-19 18:48:00,
2013-03-19 13:53:00,14.6,2.9,30.13,NNW,342,5.0,11.0,59,0.00,,---,0.00,VWS V14.01,2013-03-19 18:53:00,
2013-03-19 13:58:00,14.0,2.3,30.13,NW,323,12.0,18.0,59,0.00,,---,0.00,VWS V14.01,2013-03-19 18:58:00,
2013-03-19 14:03:00,14.1,2.0,30.13,NNW,343,8.0,11.0,58,0.00,,---,0.00,VWS V14.01,2013-03-19 19:03:00,
2013-03-19 14:08:00,14.1,2.0,30.13,NNW,333,9.0,17.0,58,0.00,,---,0.00,VWS V14.01,2013-03-19 19:08:00,
2013-03-19 14:13:00,14.3,2.6,30.13,NNW,342,12.0,16.0,59,0.00,,---,0.00,VWS V14.01,2013-03-19 19:13:00,
2013-03-19 14:18:00,14.4,2.3,30.14,NW,323,10.0,16.0,58,0.00,,---,0.00,VWS V14.01,2013-03-19 19:18:00,
2013-03-19 14:23:00,14.6,2.5,30.14,NW,315,5.0,16.0,58,0.00,,---,0.00,VWS V14.01,2013-03-19 19:23:00,
2013-03-19 14:28:00,14.6,2.9,30.14,NW,305,6.0,16.0,59,0.00,,---,0.00,VWS V14.01,2013-03-19 19:28:00,
2013-03-19 14:33:00,14.8,3.1,30.14,NNW,337,7.0,12.0,59,0.00,,---,0.00,VWS V14.01,2013-03-19 19:33:00,
2013-03-19 14:38:00,15.1,3.0,30.14,NW,313,11.0,12.0,58,0.00,,---,0.00,VWS V14.01,2013-03-19 19:38:00,
2013-03-19 14:43:00,14.9,3.2,30.14,NW,326,13.0,13.0,59,0.00,,---,0.00,VWS V14.01,2013-03-19 19:43:00,
2013-03-19 14:48:00,15.2,2.7,30.14,NW,326,8.0,16.0,57,0.00,,---,0.00,VWS V14.01,2013-03-19 19:48:00,
2013-03-19 14:53:00,15.4,3.7,30.14,NW,312,7.0,12.0,59,0.00,,---,0.00,VWS V14.01,2013-03-19 19:53:00,
2013-03-19 14:58:00,15.7,3.6,30.14,NNW,328,6.0,12.0,58,0.00,,---,0.00,VWS V14.01,2013-03-19 19:58:00,
2013-03-19 15:03:00,15.4,3.7,30.14,NNW,329,4.0,14.0,59,0.00,,---,0.00,VWS V14.01,2013-03-19 20:03:00,
2013-03-19 15:08:00,15.6,3.5,30.14,NNW,346,5.0,14.0,58,0.00,,---,0.00,VWS V14.01,2013-03-19 20:08:00,
2013-03-19 15:13:00,15.4,2.5,30.14,NW,323,14.0,17.0,56,0.00,,---,0.00,VWS V14.01,2013-03-19 20:13:00,
2013-03-19 15:18:00,15.2,2.7,30.14,NNW,328,8.0,18.0,57,0.00,,---,0.00,VWS V14.01,2013-03-19 20:18:00,
2013-03-19 15:23:00,15.6,3.1,30.14,North,349,8.0,14.0,57,0.00,,---,0.00,VWS V14.01,2013-03-19 20:23:00,
2013-03-19 15:28:00,15.6,3.1,30.14,NW,312,8.0,16.0,57,0.00,,---,0.00,VWS V14.01,2013-03-19 20:28:00,
2013-03-19 15:33:00,15.2,2.7,30.15,NW,311,18.0,18.0,57,0.00,,---,0.00,VWS V14.01,2013-03-19 20:33:00,
2013-03-19 15:38:00,15.4,2.9,30.15,NW,311,7.0,18.0,57,0.00,,---,0.00,VWS V14.01,2013-03-19 20:38:00,
2013-03-19 15:43:00,15.4,2.1,30.15,North,352,10.0,16.0,55,0.00,,---,0.00,VWS V14.01,2013-03-19 20:43:00,
2013-03-19 15:48:00,15.6,2.7,30.15,NW,308,9.0,16.0,56,0.00,,---,0.00,VWS V14.01,2013-03-19 20:48:00,
2013-03-19 15:53:00,15.7,2.8,30.15,NNW,329,6.0,10.0,56,0.00,,---,0.00,VWS V14.01,2013-03-19 20:53:00,
2013-03-19 15:58:00,16.1,3.6,30.15,NW,325,16.0,16.0,57,0.00,,---,0.00,VWS V14.01,2013-03-19 20:58:00,
2013-03-19 16:03:00,16.2,2.5,30.15,NW,322,3.0,12.0,54,0.00,,---,0.00,VWS V14.01,2013-03-19 21:03:00,
2013-03-19 16:08:00,16.4,1.9,30.15,NNW,336,6.0,16.0,52,0.00,,---,0.00,VWS V14.01,2013-03-19 21:08:00,
2013-03-19 16:13:00,16.4,1.5,30.15,North,349,6.0,12.0,51,0.00,,---,0.00,VWS V14.01,2013-03-19 21:13:00,
2013-03-19 16:18:00,16.4,1.5,30.15,NW,326,16.0,18.0,51,0.00,,---,0.00,VWS V14.01,2013-03-19 21:18:00,
2013-03-19 16:23:00,16.4,0.6,30.15,NNW,346,7.0,17.0,49,0.00,,---,0.00,VWS V14.01,2013-03-19 21:23:00,
2013-03-19 16:28:00,15.9,-0.3,30.15,NW,323,12.0,20.0,48,0.00,,---,0.00,VWS V14.01,2013-03-19 21:28:00,
2013-03-19 16:33:00,16.1,1.6,30.16,NNW,328,5.0,10.0,52,0.00,,---,0.00,VWS V14.01,2013-03-19 21:33:00,
2013-03-19 16:38:00,15.9,1.4,30.16,NNW,335,8.0,17.0,52,0.00,,---,0.00,VWS V14.01,2013-03-19 21:38:00,
2013-03-19 16:43:00,15.6,1.5,30.16,NNW,330,5.0,14.0,53,0.00,,---,0.00,VWS V14.01,2013-03-19 21:43:00,
2013-03-19 16:48:00,15.4,1.3,30.17,North,350,5.0,16.0,53,0.00,,---,0.00,VWS V14.01,2013-03-19 21:48:00,
2013-03-19 16:53:00,15.2,1.1,30.17,NNW,335,11.0,14.0,53,0.00,,---,0.00,VWS V14.01,2013-03-19 21:53:00,
2013-03-19 16:58:00,15.2,2.0,30.17,NW,322,11.0,17.0,55,0.00,,---,0.00,VWS V14.01,2013-03-19 21:58:00,
2013-03-19 17:00:00,15.2,2.0,30.17,NNW,338,11.0,17.0,55,0.00,,---,0.00,VWS V14.01,2013-03-19 22:00:00,
2013-03-19 17:03:00,15.2,2.0,30.17,North,0,8.0,8.0,55,0.00,,---,0.00,VWS V14.01,2013-03-19 22:03:00,
2013-03-19 17:08:00,15.4,1.7,30.17,North,353,10.0,10.0,54,0.00,,---,0.00,VWS V14.01,2013-03-19 22:08:00,
2013-03-19 17:13:00,15.1,1.5,30.17,NNW,346,7.0,15.0,54,0.00,,---,0.00,VWS V14.01,2013-03-19 22:13:00,
2013-03-19 17:18:00,15.1,1.5,30.18,NNW,344,11.0,15.0,54,0.00,,---,0.00,VWS V14.01,2013-03-19 22:18:00,
2013-03-19 18:01:00,13.6,1.2,30.20,NW,316,10.0,11.0,57,0.00,,---,0.00,VWS V14.01,2013-03-19 23:01:00,
2013-03-19 18:07:00,13.6,1.2,30.20,NW,316,10.0,11.0,57,0.00,,---,0.00,VWS V14.01,2013-03-19 23:07:00,
2013-03-19 18:08:00,13.3,1.3,30.20,NNW,329,5.0,17.0,58,0.00,,---,0.00,VWS V14.01,2013-03-19 23:08:00,
2013-03-19 18:12:00,13.3,0.9,30.20,NNW,339,11.0,17.0,57,0.00,,---,0.00,VWS V14.01,2013-03-19 23:12:00,
2013-03-19 18:13:00,13.3,1.3,30.20,NW,323,5.0,17.0,58,0.00,,---,0.00,VWS V14.01,2013-03-19 23:13:00,
2013-03-19 18:17:00,13.3,1.3,30.21,NNW,340,6.0,17.0,58,0.00,,---,0.00,VWS V14.01,2013-03-19 23:17:00,
2013-03-19 18:18:00,13.3,0.9,30.21,North,350,5.0,17.0,57,0.00,,---,0.00,VWS V14.01,2013-03-19 23:18:00,
2013-03-19 18:19:00,13.3,0.9,30.21,NNW,329,3.0,17.0,57,0.00,,---,0.00,VWS V14.01,2013-03-19 23:19:00,
2013-03-19 18:23:00,13.3,0.9,30.21,NNW,339,7.0,11.0,57,0.00,,---,0.00,VWS V14.01,2013-03-19 23:23:00,
2013-03-19 18:24:00,13.3,0.9,30.21,North,359,8.0,13.0,57,0.00,,---,0.00,VWS V14.01,2013-03-19 23:24:00,
2013-03-19 18:28:00,13.1,0.0,30.21,NW,322,8.0,14.0,55,0.00,,---,0.00,VWS V14.01,2013-03-19 23:28:00,
2013-03-19 18:29:00,12.9,-0.2,30.21,North,352,10.0,16.0,55,0.00,,---,0.00,VWS V14.01,2013-03-19 23:29:00,
2013-03-19 18:33:00,12.9,-0.6,30.22,NNW,339,7.0,14.0,54,0.00,,---,0.00,VWS V14.01,2013-03-19 23:33:00,
2013-03-19 18:34:00,12.9,-0.6,30.22,NNW,347,11.0,14.0,54,0.00,,---,0.00,VWS V14.01,2013-03-19 23:34:00,
2013-03-19 18:38:00,12.6,-0.5,30.22,NNW,328,7.0,17.0,55,0.00,,---,0.00,VWS V14.01,2013-03-19 23:38:00,
2013-03-19 18:39:00,12.6,-0.5,30.22,NNW,344,5.0,17.0,55,0.00,,---,0.00,VWS V14.01,2013-03-19 23:39:00,
2013-03-19 18:43:00,12.3,-0.8,30.22,North,357,9.0,13.0,55,0.00,,---,0.00,VWS V14.01,2013-03-19 23:43:00,
2013-03-19 18:44:00,12.3,-0.8,30.22,North,359,7.0,14.0,55,0.00,,---,0.00,VWS V14.01,2013-03-19 23:44:00,
2013-03-19 18:48:00,12.1,-1.0,30.23,North,354,7.0,16.0,55,0.00,,---,0.00,VWS V14.01,2013-03-19 23:48:00,
2013-03-19 18:49:00,12.1,-1.0,30.23,NNW,342,11.0,17.0,55,0.00,,---,0.00,VWS V14.01,2013-03-19 23:49:00,
2013-03-19 18:53:00,11.9,-1.1,30.23,North,359,5.0,17.0,55,0.00,,---,0.00,VWS V14.01,2013-03-19 23:53:00,
2013-03-19 18:54:00,11.7,-1.0,30.23,North,352,6.0,17.0,56,0.00,,---,0.00,VWS V14.01,2013-03-19 23:54:00,
2013-03-19 18:58:00,11.7,-1.3,30.23,NNW,346,8.0,17.0,55,0.00,,---,0.00,VWS V14.01,2013-03-19 23:58:00,
2013-03-19 18:59:00,11.6,-1.4,30.23,NNW,347,12.0,17.0,55,0.00,,---,0.00,VWS V14.01,2013-03-19 23:59:00,
2013-03-19 19:03:00,11.6,-0.7,30.23,NW,326,8.0,11.0,57,0.00,,---,0.00,VWS V14.01,2013-03-20 00:03:00,
2013-03-19 19:04:00,11.4,-0.9,30.23,NNW,330,7.0,16.0,57,0.00,,---,0.00,VWS V14.01,2013-03-20 00:04:00,
2013-03-19 19:08:00,11.2,-1.0,30.23,North,0,8.0,16.0,57,0.00,,---,0.00,VWS V14.01,2013-03-20 00:08:00,
2013-03-19 19:09:00,11.2,-1.0,30.23,North,6,5.0,16.0,57,0.00,,---,0.00,VWS V14.01,2013-03-20 00:09:00,
2013-03-19 19:13:00,11.1,-1.1,30.23,North,353,6.0,13.0,57,0.00,,---,0.00,VWS V14.01,2013-03-20 00:13:00,
2013-03-19 19:14:00,11.1,-0.8,30.23,North,353,6.0,13.0,58,0.00,,---,0.00,VWS V14.01,2013-03-20 00:14:00,
2013-03-19 19:15:00,10.9,-1.0,30.23,NNW,335,9.0,13.0,58,0.00,,---,0.00,VWS V14.01,2013-03-20 00:15:00,
2013-03-19 19:19:00,10.7,-0.8,30.24,North,357,4.0,15.0,59,0.00,,---,0.00,VWS V14.01,2013-03-20 00:19:00,
2013-03-19 19:20:00,10.5,-1.0,30.24,North,356,5.0,15.0,59,0.00,,---,0.00,VWS V14.01,2013-03-20 00:20:00,
2013-03-19 19:24:00,10.4,-0.7,30.24,NW,318,9.0,13.0,60,0.00,,---,0.00,VWS V14.01,2013-03-20 00:24:00,
2013-03-19 19:25:00,10.2,-0.9,30.24,NW,312,7.0,13.0,60,0.00,,---,0.00,VWS V14.01,2013-03-20 00:25:00,
2013-03-19 19:29:00,10.0,-1.1,30.24,NNW,340,3.0,13.0,60,0.00,,---,0.00,VWS V14.01,2013-03-20 00:29:00,
2013-03-19 19:30:00,10.0,-1.1,30.24,NNW,342,6.0,13.0,60,0.00,,---,0.00,VWS V14.01,2013-03-20 00:30:00,
2013-03-19 19:31:00,10.0,-1.1,30.24,NNW,336,3.0,13.0,60,0.00,,---,0.00,VWS V14.01,2013-03-20 00:31:00,
2013-03-19 19:34:00,9.7,-1.0,30.24,NNW,340,10.0,11.0,61,0.00,,---,0.00,VWS V14.01,2013-03-20 00:34:00,
2013-03-19 19:35:00,9.9,-0.9,30.24,North,359,8.0,11.0,61,0.00,,---,0.00,VWS V14.01,2013-03-20 00:35:00,
2013-03-19 19:36:00,9.7,-1.0,30.24,NW,316,8.0,11.0,61,0.00,,---,0.00,VWS V14.01,2013-03-20 00:36:00,
2013-03-19 19:39:00,9.7,-1.0,30.24,WNW,294,8.0,11.0,61,0.00,,---,0.00,VWS V14.01,2013-03-20 00:39:00,
2013-03-19 19:40:00,9.5,-1.2,30.24,NNW,343,6.0,11.0,61,0.00,,---,0.00,VWS V14.01,2013-03-20 00:40:00,
2013-03-19 19:41:00,9.5,-1.2,30.24,NNW,337,7.0,11.0,61,0.00,,---,0.00,VWS V14.01,2013-03-20 00:41:00,
2013-03-19 19:44:00,9.3,-1.4,30.24,NW,322,7.0,11.0,61,0.00,,---,0.00,VWS V14.01,2013-03-20 00:44:00,
2013-03-19 19:45:00,9.3,-1.4,30.24,North,359,3.0,11.0,61,0.00,,---,0.00,VWS V14.01,2013-03-20 00:45:00,
2013-03-19 19:47:00,9.3,-1.4,30.25,NNW,328,3.0,12.0,61,0.00,,---,0.00,VWS V14.01,2013-03-20 00:47:00,
2013-03-19 19:49:00,9.3,-1.4,30.25,NNW,333,9.0,12.0,61,0.00,,---,0.00,VWS V14.01,2013-03-20 00:49:00,
2013-03-19 19:50:00,9.3,-1.4,30.25,NW,318,5.0,12.0,61,0.00,,---,0.00,VWS V14.01,2013-03-20 00:50:00,
2013-03-19 19:52:00,9.3,-1.4,30.25,North,0,7.0,10.0,61,0.00,,---,0.00,VWS V14.01,2013-03-20 00:52:00,
2013-03-19 19:54:00,9.2,-1.5,30.25,NNW,344,5.0,12.0,61,0.00,,---,0.00,VWS V14.01,2013-03-20 00:54:00,
2013-03-19 19:55:00,9.2,-1.5,30.25,NNW,336,3.0,12.0,61,0.00,,---,0.00,VWS V14.01,2013-03-20 00:55:00,
2013-03-19 19:57:00,9.2,-1.5,30.25,NNW,343,8.0,14.0,61,0.00,,---,0.00,VWS V14.01,2013-03-20 00:57:00,
2013-03-19 19:59:00,9.3,-1.8,30.25,NW,322,8.0,14.0,60,0.00,,---,0.00,VWS V14.01,2013-03-20 00:59:00,
2013-03-19 20:00:00,9.3,-1.8,30.25,NNW,333,6.0,14.0,60,0.00,,---,0.00,VWS V14.01,2013-03-20 01:00:00,
2013-03-19 20:02:00,9.3,-1.8,30.25,NNW,330,5.0,12.0,60,0.00,,---,0.00,VWS V14.01,2013-03-20 01:02:00,
2013-03-19 20:04:00,9.2,-1.9,30.25,North,349,10.0,12.0,60,0.00,,---,0.00,VWS V14.01,2013-03-20 01:04:00,
2013-03-19 20:05:00,9.2,-1.9,30.25,NNW,337,7.0,12.0,60,0.00,,---,0.00,VWS V14.01,2013-03-20 01:05:00,
2013-03-19 20:07:00,9.2,-1.9,30.25,NNW,347,6.0,12.0,60,0.00,,---,0.00,VWS V14.01,2013-03-20 01:07:00,
2013-03-19 20:09:00,9.2,-1.9,30.25,NNW,336,4.0,12.0,60,0.00,,---,0.00,VWS V14.01,2013-03-20 01:09:00,
2013-03-19 20:10:00,9.2,-1.9,30.25,NNW,337,8.0,14.0,60,0.00,,---,0.00,VWS V14.01,2013-03-20 01:10:00,
2013-03-19 20:13:00,9.2,-1.9,30.25,NNW,332,4.0,17.0,60,0.00,,---,0.00,VWS V14.01,2013-03-20 01:13:00,
2013-03-19 20:14:00,9.2,-1.9,30.25,NNW,346,5.0,17.0,60,0.00,,---,0.00,VWS V14.01,2013-03-20 01:14:00,
2013-03-19 20:15:00,9.2,-1.9,30.25,North,0,6.0,17.0,60,0.00,,---,0.00,VWS V14.01,2013-03-20 01:15:00,
2013-03-19 20:18:00,9.0,-2.0,30.25,North,0,7.0,17.0,60,0.00,,---,0.00,VWS V14.01,2013-03-20 01:18:00,
2013-03-19 20:19:00,9.0,-2.0,30.25,NNW,333,5.0,17.0,60,0.00,,---,0.00,VWS V14.01,2013-03-20 01:19:00,
2013-03-19 20:20:00,9.0,-2.0,30.25,North,354,5.0,17.0,60,0.00,,---,0.00,VWS V14.01,2013-03-20 01:20:00,
2013-03-19 20:23:00,9.0,-2.0,30.25,NNW,335,7.0,15.0,60,0.00,,---,0.00,VWS V14.01,2013-03-20 01:23:00,
2013-03-19 20:24:00,9.0,-2.0,30.25,NW,326,6.0,15.0,60,0.00,,---,0.00,VWS V14.01,2013-03-20 01:24:00,
2013-03-19 20:25:00,9.0,-2.0,30.25,NW,325,6.0,15.0,60,0.00,,---,0.00,VWS V14.01,2013-03-20 01:25:00,
2013-03-19 20:28:00,8.8,-2.2,30.25,NNW,344,13.0,15.0,60,0.00,,---,0.00,VWS V14.01,2013-03-20 01:28:00,
2013-03-19 20:29:00,9.0,-2.0,30.25,NNW,343,7.0,15.0,60,0.00,,---,0.00,VWS V14.01,2013-03-20 01:29:00,
2013-03-19 20:30:00,9.0,-2.4,30.26,NNW,328,11.0,15.0,59,0.00,,---,0.00,VWS V14.01,2013-03-20 01:30:00,
2013-03-19 20:31:00,9.0,-2.4,30.26,NNW,344,14.0,15.0,59,0.00,,---,0.00,VWS V14.01,2013-03-20 01:31:00,
2013-03-19 20:33:00,9.0,-2.4,30.26,North,353,6.0,14.0,59,0.00,,---,0.00,VWS V14.01,2013-03-20 01:33:00,
2013-03-19 20:35:00,8.8,-2.6,30.26,NW,325,5.0,14.0,59,0.00,,---,0.00,VWS V14.01,2013-03-20 01:35:00,
2013-03-19 20:36:00,8.8,-2.6,30.26,North,349,6.0,14.0,59,0.00,,---,0.00,VWS V14.01,2013-03-20 01:36:00,
2013-03-19 20:38:00,8.8,-2.6,30.26,NNW,336,8.0,14.0,59,0.00,,---,0.00,VWS V14.01,2013-03-20 01:38:00,
2013-03-19 20:40:00,8.8,-2.6,30.26,North,353,7.0,14.0,59,0.00,,---,0.00,VWS V14.01,2013-03-20 01:40:00,
2013-03-19 20:42:00,8.8,-2.6,30.26,North,357,5.0,5.0,59,0.00,,---,0.00,VWS V14.01,2013-03-20 01:42:00,
2013-03-19 20:43:00,8.6,-2.8,30.26,North,353,6.0,12.0,59,0.00,,---,0.00,VWS V14.01,2013-03-20 01:43:00,
2013-03-19 20:45:00,8.6,-2.8,30.26,North,354,5.0,12.0,59,0.00,,---,0.00,VWS V14.01,2013-03-20 01:45:00,
2013-03-19 20:46:00,8.6,-2.8,30.26,NNW,328,6.0,12.0,59,0.00,,---,0.00,VWS V14.01,2013-03-20 01:46:00,
2013-03-19 20:47:00,8.6,-2.8,30.26,North,356,4.0,12.0,59,0.00,,---,0.00,VWS V14.01,2013-03-20 01:47:00,
2013-03-19 20:48:00,8.6,-2.8,30.26,NNW,339,3.0,12.0,59,0.00,,---,0.00,VWS V14.01,2013-03-20 01:48:00,
2013-03-19 20:50:00,8.6,-2.8,30.26,North,0,7.0,12.0,59,0.00,,---,0.00,VWS V14.01,2013-03-20 01:50:00,
2013-03-19 20:51:00,8.6,-2.8,30.26,NNW,333,8.0,12.0,59,0.00,,---,0.00,VWS V14.01,2013-03-20 01:51:00,
2013-03-19 20:52:00,8.6,-2.8,30.26,NNW,335,6.0,11.0,59,0.00,,---,0.00,VWS V14.01,2013-03-20 01:52:00,
2013-03-19 20:54:00,8.6,-3.1,30.26,North,356,12.0,14.0,58,0.00,,---,0.00,VWS V14.01,2013-03-20 01:54:00,
2013-03-19 20:55:00,8.6,-3.1,30.26,North,356,12.0,14.0,58,0.00,,---,0.00,VWS V14.01,2013-03-20 01:55:00,
2013-03-19 20:56:00,8.8,-3.0,30.26,North,350,7.0,14.0,58,0.00,,---,0.00,VWS V14.01,2013-03-20 01:56:00,
2013-03-19 20:57:00,8.8,-3.0,30.26,North,353,6.0,14.0,58,0.00,,---,0.00,VWS V14.01,2013-03-20 01:57:00,
2013-03-19 20:59:00,8.6,-3.1,30.26,North,0,7.0,14.0,58,0.00,,---,0.00,VWS V14.01,2013-03-20 01:59:00,
2013-03-19 21:00:00,8.6,-3.1,30.26,North,354,7.0,14.0,58,0.00,,---,0.00,VWS V14.01,2013-03-20 02:00:00,
2013-03-19 21:01:00,8.6,-3.1,30.26,NNW,344,6.0,8.0,58,0.00,,---,0.00,VWS V14.01,2013-03-20 02:01:00,
2013-03-19 21:02:00,8.6,-3.1,30.26,NNW,343,7.0,8.0,58,0.00,,---,0.00,VWS V14.01,2013-03-20 02:02:00,
2013-03-19 21:04:00,8.6,-3.1,30.26,NNW,344,11.0,11.0,58,0.00,,---,0.00,VWS V14.01,2013-03-20 02:04:00,
2013-03-19 21:05:00,8.6,-3.1,30.26,NNW,330,10.0,11.0,58,0.00,,---,0.00,VWS V14.01,2013-03-20 02:05:00,
2013-03-19 21:06:00,8.6,-3.1,30.26,NNW,336,8.0,11.0,58,0.00,,---,0.00,VWS V14.01,2013-03-20 02:06:00,
2013-03-19 21:07:00,8.6,-3.1,30.26,NNW,344,7.0,12.0,58,0.00,,---,0.00,VWS V14.01,2013-03-20 02:07:00,
2013-03-19 21:09:00,8.4,-3.3,30.26,NNW,343,6.0,12.0,58,0.00,,---,0.00,VWS V14.01,2013-03-20 02:09:00,
2013-03-19 21:10:00,8.4,-3.3,30.26,NNW,339,10.0,12.0,58,0.00,,---,0.00,VWS V14.01,2013-03-20 02:10:00,
2013-03-19 21:12:00,8.4,-3.3,30.26,NW,325,7.0,7.0,58,0.00,,---,0.00,VWS V14.01,2013-03-20 02:12:00,
2013-03-19 21:14:00,8.4,-3.3,30.26,North,350,6.0,13.0,58,0.00,,---,0.00,VWS V14.01,2013-03-20 02:14:00,
2013-03-19 21:15:00,8.4,-3.3,30.26,North,349,5.0,13.0,58,0.00,,---,0.00,VWS V14.01,2013-03-20 02:15:00,
2013-03-19 21:17:00,8.3,-3.4,30.26,North,353,8.0,13.0,58,0.00,,---,0.00,VWS V14.01,2013-03-20 02:17:00,
2013-03-19 21:19:00,8.3,-3.4,30.26,NNW,342,6.0,13.0,58,0.00,,---,0.00,VWS V14.01,2013-03-20 02:19:00,
2013-03-19 21:20:00,8.3,-3.4,30.26,North,0,7.0,13.0,58,0.00,,---,0.00,VWS V14.01,2013-03-20 02:20:00,
2013-03-19 21:22:00,8.3,-3.4,30.26,NNW,332,4.0,6.0,58,0.00,,---,0.00,VWS V14.01,2013-03-20 02:22:00,
2013-03-19 21:25:00,8.1,-3.6,30.26,North,0,5.0,10.0,58,0.00,,---,0.00,VWS V14.01,2013-03-20 02:25:00,
2013-03-19 21:28:00,8.1,-3.6,30.26,North,353,5.0,10.0,58,0.00,,---,0.00,VWS V14.01,2013-03-20 02:28:00,
2013-03-19 21:30:00,7.9,-3.8,30.26,North,359,7.0,10.0,58,0.00,,---,0.00,VWS V14.01,2013-03-20 02:30:00,
2013-03-19 21:33:00,7.9,-4.2,30.26,NNW,346,6.0,12.0,57,0.00,,---,0.00,VWS V14.01,2013-03-20 02:33:00,
2013-03-19 21:35:00,8.1,-4.0,30.26,North,350,10.0,17.0,57,0.00,,---,0.00,VWS V14.01,2013-03-20 02:35:00,
2013-03-19 21:36:00,8.1,-4.0,30.26,NNW,335,11.0,17.0,57,0.00,,---,0.00,VWS V14.01,2013-03-20 02:36:00,
2013-03-19 21:38:00,8.1,-4.0,30.26,North,357,5.0,17.0,57,0.00,,---,0.00,VWS V14.01,2013-03-20 02:38:00,
2013-03-19 21:40:00,7.9,-4.2,30.26,North,1,5.0,17.0,57,0.00,,---,0.00,VWS V14.01,2013-03-20 02:40:00,
2013-03-19 21:41:00,7.9,-4.2,30.26,North,0,10.0,17.0,57,0.00,,---,0.00,VWS V14.01,2013-03-20 02:41:00,
2013-03-19 21:43:00,7.9,-4.2,30.26,North,359,12.0,12.0,57,0.00,,---,0.00,VWS V14.01,2013-03-20 02:43:00,
2013-03-19 21:46:00,7.9,-4.2,30.26,NNW,346,4.0,13.0,57,0.00,,---,0.00,VWS V14.01,2013-03-20 02:46:00,
2013-03-19 21:48:00,7.9,-4.2,30.26,North,349,3.0,13.0,57,0.00,,---,0.00,VWS V14.01,2013-03-20 02:48:00,
2013-03-19 21:49:00,7.9,-4.2,30.26,North,11,5.0,13.0,57,0.00,,---,0.00,VWS V14.01,2013-03-20 02:49:00,
2013-03-19 21:51:00,7.7,-4.3,30.26,NNW,344,3.0,13.0,57,0.00,,---,0.00,VWS V14.01,2013-03-20 02:51:00,
2013-03-19 21:53:00,7.7,-4.3,30.26,North,353,5.0,6.0,57,0.00,,---,0.00,VWS V14.01,2013-03-20 02:53:00,
2013-03-19 21:54:00,7.7,-4.3,30.26,NNW,340,7.0,7.0,57,0.00,,---,0.00,VWS V14.01,2013-03-20 02:54:00,
2013-03-19 21:57:00,7.7,-4.3,30.26,NNW,342,7.0,7.0,57,0.00,,---,0.00,VWS V14.01,2013-03-20 02:57:00,
2013-03-19 21:58:00,7.7,-4.3,30.26,NNW,344,10.0,10.0,57,0.00,,---,0.00,VWS V14.01,2013-03-20 02:58:00,
2013-03-19 21:59:00,7.7,-4.3,30.26,NNW,347,5.0,10.0,57,0.00,,---,0.00,VWS V14.01,2013-03-20 02:59:00,
2013-03-19 22:02:00,7.7,-4.3,30.26,NNW,342,5.0,6.0,57,0.00,,---,0.00,VWS V14.01,2013-03-20 03:02:00,
2013-03-19 22:03:00,7.7,-4.3,30.26,North,353,2.0,6.0,57,0.00,,---,0.00,VWS V14.01,2013-03-20 03:03:00,
2013-03-19 22:04:00,7.6,-4.1,30.26,NNW,337,3.0,6.0,58,0.00,,---,0.00,VWS V14.01,2013-03-20 03:04:00,
2013-03-19 22:07:00,7.6,-4.1,30.26,NNW,336,6.0,7.0,58,0.00,,---,0.00,VWS V14.01,2013-03-20 03:07:00,
2013-03-19 22:08:00,7.6,-4.1,30.26,North,353,6.0,7.0,58,0.00,,---,0.00,VWS V14.01,2013-03-20 03:08:00,
2013-03-19 22:09:00,7.6,-4.1,30.26,NNW,335,3.0,7.0,58,0.00,,---,0.00,VWS V14.01,2013-03-20 03:09:00,
2013-03-19 22:12:00,7.4,-4.3,30.26,NNW,343,5.0,5.0,58,0.00,,---,0.00,VWS V14.01,2013-03-20 03:12:00,
2013-03-19 22:13:00,7.4,-3.9,30.26,NW,323,3.0,5.0,59,0.00,,---,0.00,VWS V14.01,2013-03-20 03:13:00,
2013-03-19 22:14:00,7.4,-3.9,30.26,NNW,346,5.0,7.0,59,0.00,,---,0.00,VWS V14.01,2013-03-20 03:14:00,
2013-03-19 22:17:00,7.0,-4.3,30.26,North,356,4.0,7.0,59,0.00,,---,0.00,VWS V14.01,2013-03-20 03:17:00,
2013-03-19 22:18:00,7.0,-3.9,30.26,NNW,337,2.0,7.0,60,0.00,,---,0.00,VWS V14.01,2013-03-20 03:18:00,
2013-03-19 22:19:00,7.0,-3.9,30.26,NNW,343,4.0,7.0,60,0.00,,---,0.00,VWS V14.01,2013-03-20 03:19:00,
2013-03-19 22:22:00,7.0,-3.9,30.26,North,356,2.0,6.0,60,0.00,,---,0.00,VWS V14.01,2013-03-20 03:22:00,
2013-03-19 22:23:00,7.0,-3.9,30.26,NNW,347,10.0,10.0,60,0.00,,---,0.00,VWS V14.01,2013-03-20 03:23:00,
2013-03-19 22:24:00,7.0,-3.9,30.26,North,0,6.0,10.0,60,0.00,,---,0.00,VWS V14.01,2013-03-20 03:24:00,
2013-03-19 22:27:00,7.0,-3.9,30.26,North,350,5.0,12.0,60,0.00,,---,0.00,VWS V14.01,2013-03-20 03:27:00,
2013-03-19 22:28:00,7.0,-3.9,30.26,NNW,328,7.0,12.0,60,0.00,,---,0.00,VWS V14.01,2013-03-20 03:28:00,
2013-03-19 22:29:00,7.0,-3.9,30.26,NNW,346,3.0,12.0,60,0.00,,---,0.00,VWS V14.01,2013-03-20 03:29:00,
2013-03-19 22:33:00,7.0,-3.9,30.26,North,354,5.0,8.0,60,0.00,,---,0.00,VWS V14.01,2013-03-20 03:33:00,
2013-03-19 22:35:00,7.0,-3.9,30.26,NNW,328,3.0,8.0,60,0.00,,---,0.00,VWS V14.01,2013-03-20 03:35:00,
2013-03-19 22:38:00,7.2,-3.8,30.26,NNW,332,5.0,10.0,60,0.00,,---,0.00,VWS V14.01,2013-03-20 03:38:00,
2013-03-19 22:39:00,7.2,-3.8,30.26,North,349,8.0,11.0,60,0.00,,---,0.00,VWS V14.01,2013-03-20 03:39:00,
2013-03-19 22:40:00,7.2,-3.8,30.26,NNW,344,5.0,12.0,60,0.00,,---,0.00,VWS V14.01,2013-03-20 03:40:00,
2013-03-19 22:43:00,7.4,-3.6,30.26,NNW,335,5.0,11.0,60,0.00,,---,0.00,VWS V14.01,2013-03-20 03:43:00,
2013-03-19 22:44:00,7.4,-3.6,30.26,NNW,347,6.0,11.0,60,0.00,,---,0.00,VWS V14.01,2013-03-20 03:44:00,
2013-03-19 22:45:00,7.2,-3.8,30.26,North,359,5.0,11.0,60,0.00,,---,0.00,VWS V14.01,2013-03-20 03:45:00,
2013-03-19 22:48:00,7.4,-3.6,30.26,North,349,10.0,13.0,60,0.00,,---,0.00,VWS V14.01,2013-03-20 03:48:00,
2013-03-19 22:49:00,7.4,-3.6,30.26,NW,325,5.0,13.0,60,0.00,,---,0.00,VWS V14.01,2013-03-20 03:49:00,
2013-03-19 22:50:00,7.4,-3.6,30.26,NNW,328,6.0,13.0,60,0.00,,---,0.00,VWS V14.01,2013-03-20 03:50:00,
2013-03-19 22:53:00,7.4,-3.6,30.26,NNW,330,8.0,10.0,60,0.00,,---,0.00,VWS V14.01,2013-03-20 03:53:00,
2013-03-19 22:54:00,7.4,-3.6,30.26,NW,312,6.0,14.0,60,0.00,,---,0.00,VWS V14.01,2013-03-20 03:54:00,
2013-03-19 22:55:00,7.4,-3.6,30.26,North,359,6.0,14.0,60,0.00,,---,0.00,VWS V14.01,2013-03-20 03:55:00,
2013-03-19 22:58:00,7.2,-3.8,30.26,North,353,11.0,14.0,60,0.00,,---,0.00,VWS V14.01,2013-03-20 03:58:00,
2013-03-19 22:59:00,7.2,-3.8,30.26,NNW,339,6.0,14.0,60,0.00,,---,0.00,VWS V14.01,2013-03-20 03:59:00,
2013-03-19 23:00:00,7.2,-3.8,30.26,North,352,10.0,14.0,60,0.00,,---,0.00,VWS V14.01,2013-03-20 04:00:00,
2013-03-19 23:05:00,7.0,-3.9,30.26,North,356,5.0,11.0,60,0.00,,---,0.00,VWS V14.01,2013-03-20 04:05:00,
2013-03-19 23:10:00,7.0,-3.6,30.26,NW,325,7.0,14.0,61,0.00,,---,0.00,VWS V14.01,2013-03-20 04:10:00,
2013-03-19 23:11:00,7.0,-3.6,30.26,North,0,6.0,14.0,61,0.00,,---,0.00,VWS V14.01,2013-03-20 04:11:00,
2013-03-19 23:15:00,6.9,-3.7,30.26,NNW,336,8.0,11.0,61,0.00,,---,0.00,VWS V14.01,2013-03-20 04:15:00,
2013-03-19 23:16:00,6.9,-3.7,30.26,NNW,343,12.0,12.0,61,0.00,,---,0.00,VWS V14.01,2013-03-20 04:16:00,
2013-03-19 23:20:00,6.9,-4.0,30.26,NNW,333,6.0,13.0,60,0.00,,---,0.00,VWS V14.01,2013-03-20 04:20:00,
2013-03-19 23:21:00,6.9,-4.0,30.26,North,0,5.0,13.0,60,0.00,,---,0.00,VWS V14.01,2013-03-20 04:21:00,
2013-03-19 23:22:00,6.9,-4.0,30.26,NNW,340,6.0,7.0,60,0.00,,---,0.00,VWS V14.01,2013-03-20 04:22:00,
2013-03-19 23:25:00,6.9,-3.7,30.26,North,350,11.0,14.0,61,0.00,,---,0.00,VWS V14.01,2013-03-20 04:25:00,
2013-03-19 23:26:00,6.9,-4.0,30.26,North,350,8.0,14.0,60,0.00,,---,0.00,VWS V14.01,2013-03-20 04:26:00,
2013-03-19 23:27:00,6.9,-4.0,30.26,North,352,8.0,14.0,60,0.00,,---,0.00,VWS V14.01,2013-03-20 04:27:00,
2013-03-19 23:30:00,6.9,-4.0,30.26,North,352,5.0,14.0,60,0.00,,---,0.00,VWS V14.01,2013-03-20 04:30:00,
2013-03-19 23:31:00,6.9,-4.0,30.26,North,352,7.0,14.0,60,0.00,,---,0.00,VWS V14.01,2013-03-20 04:31:00,
2013-03-19 23:32:00,6.7,-4.2,30.26,North,0,12.0,12.0,60,0.00,,---,0.00,VWS V14.01,2013-03-20 04:32:00,
2013-03-19 23:35:00,6.7,-4.2,30.26,NNW,346,9.0,14.0,60,0.00,,---,0.00,VWS V14.01,2013-03-20 04:35:00,
2013-03-19 23:36:00,6.7,-4.2,30.26,NW,320,6.0,14.0,60,0.00,,---,0.00,VWS V14.01,2013-03-20 04:36:00,
2013-03-19 23:37:00,6.7,-3.9,30.26,North,350,10.0,14.0,61,0.00,,---,0.00,VWS V14.01,2013-03-20 04:37:00,
2013-03-19 23:40:00,6.5,-4.1,30.26,NNW,337,7.0,14.0,61,0.00,,---,0.00,VWS V14.01,2013-03-20 04:40:00,
2013-03-19 23:41:00,6.5,-4.1,30.26,NNW,347,5.0,14.0,61,0.00,,---,0.00,VWS V14.01,2013-03-20 04:41:00,
2013-03-19 23:42:00,6.5,-4.1,30.26,North,356,11.0,13.0,61,0.00,,---,0.00,VWS V14.01,2013-03-20 04:42:00,
2013-03-19 23:45:00,6.5,-4.1,30.26,NNW,342,3.0,13.0,61,0.00,,---,0.00,VWS V14.01,2013-03-20 04:45:00,
2013-03-19 23:46:00,6.3,-4.3,30.26,NW,320,5.0,13.0,61,0.00,,---,0.00,VWS V14.01,2013-03-20 04:46:00,
2013-03-19 23:47:00,6.3,-4.3,30.26,NNW,346,4.0,13.0,61,0.00,,---,0.00,VWS V14.01,2013-03-20 04:47:00,
2013-03-19 23:50:00,6.3,-4.3,30.26,NNW,347,5.0,13.0,61,0.00,,---,0.00,VWS V14.01,2013-03-20 04:50:00,
2013-03-19 23:51:00,6.3,-4.3,30.26,North,0,5.0,13.0,61,0.00,,---,0.00,VWS V14.01,2013-03-20 04:51:00,
2013-03-19 23:52:00,6.3,-4.3,30.26,NNW,343,2.0,8.0,61,0.00,,---,0.00,VWS V14.01,2013-03-20 04:52:00,
2013-03-19 23:55:00,6.1,-4.4,30.26,NW,312,7.0,13.0,61,0.00,,---,0.00,VWS V14.01,2013-03-20 04:55:00,
2013-03-19 23:56:00,6.1,-4.4,30.26,NW,316,5.0,13.0,61,0.00,,---,0.00,VWS V14.01,2013-03-20 04:56:00,
2013-03-19 23:57:00,6.1,-4.4,30.26,NNW,347,6.0,13.0,61,0.00,,---,0.00,VWS V14.01,2013-03-20 04:57:00,